Time;durP1;ratioP1;P1;durP2;ratioP2;P2;SDS_P1;SDS_P2;PMS_P1;PMS_P2;Temp;Humidity;BMP_temperature;BMP_pressure;BME280_temperature;BME280_humidity;BME280_pressure;Samples;Min_cycle;Max_cycle;Signal;HPM_P1;HPM_P2
2023/01/28 00:01:49;;;;;;;6.03;3.17;;;3.00;99.90;;;;;;5035478;28;20045;-62
2023/01/28 00:04:14;;;;;;;4.65;2.22;;;3.00;99.90;;;;;;5053078;28;20037;-62
2023/01/28 00:06:40;;;;;;;5.70;2.60;;;3.00;99.90;;;;;;5051791;28;20140;-62
2023/01/28 00:09:06;;;;;;;6.38;2.67;;;3.00;99.90;;;;;;5052901;28;20045;-62
2023/01/28 00:11:32;;;;;;;4.18;2.20;;;3.00;99.90;;;;;;5051012;28;20060;-62
2023/01/28 00:13:58;;;;;;;9.38;3.30;;;3.00;99.90;;;;;;5035974;28;20123;-62
2023/01/28 00:16:25;;;;;;;5.55;2.50;;;3.00;99.90;;;;;;5052565;28;20127;-62
2023/01/28 00:18:52;;;;;;;4.90;2.70;;;3.00;99.90;;;;;;5051653;28;20040;-62
2023/01/28 00:21:18;;;;;;;5.20;2.70;;;3.00;99.90;;;;;;5035341;28;20080;-62
2023/01/28 00:23:50;;;;;;;6.50;3.10;;;3.00;99.90;;;;;;5051380;28;20041;-62
2023/01/28 00:26:16;;;;;;;4.97;2.65;;;3.00;99.90;;;;;;5052812;28;20501;-62
2023/01/28 00:28:42;;;;;;;4.80;2.50;;;3.00;99.90;;;;;;5051632;28;20037;-62
2023/01/28 00:31:15;;;;;;;5.10;2.95;;;3.00;99.90;;;;;;5053293;28;20120;-62
2023/01/28 00:33:46;;;;;;;7.95;3.35;;;3.00;99.90;;;;;;5051710;28;20044;-63
2023/01/28 00:36:12;;;;;;;4.10;2.30;;;3.00;99.90;;;;;;5035423;28;20469;-62
2023/01/28 00:38:38;;;;;;;4.70;2.35;;;3.00;99.90;;;;;;5051310;28;20057;-62
2023/01/28 00:41:16;;;;;;;6.18;2.78;;;3.00;99.90;;;;;;5051065;28;20029;-62
2023/01/28 00:43:43;;;;;;;6.25;2.78;;;3.00;99.90;;;;;;5034834;28;20063;-62
2023/01/28 00:46:10;;;;;;;4.97;2.88;;;3.00;99.90;;;;;;5035464;28;20418;-62
2023/01/28 00:48:37;;;;;;;5.15;2.78;;;3.00;99.90;;;;;;5033620;28;20041;-62
2023/01/28 00:51:03;;;;;;;5.10;2.78;;;3.00;99.90;;;;;;5032375;28;20077;-62
2023/01/28 00:53:29;;;;;;;6.82;3.83;;;3.00;99.90;;;;;;5013856;28;20474;-62
2023/01/28 00:55:55;;;;;;;5.22;2.75;;;3.00;99.90;;;;;;5033168;28;20038;-62
2023/01/28 00:58:23;;;;;;;4.88;2.75;;;3.00;99.90;;;;;;5031639;28;20115;-62
2023/01/28 01:00:49;;;;;;;5.90;2.75;;;3.00;99.90;;;;;;5030363;28;20037;-62
2023/01/28 01:03:16;;;;;;;6.82;3.63;;;3.00;99.90;;;;;;5031801;28;20509;-62
2023/01/28 01:05:42;;;;;;;5.20;2.72;;;3.00;99.90;;;;;;5032372;28;20069;-63
2023/01/28 01:08:08;;;;;;;5.47;3.13;;;3.00;99.90;;;;;;5030852;28;20453;-62
2023/01/28 01:10:34;;;;;;;5.03;3.13;;;3.00;99.90;;;;;;5031115;28;20077;-62
2023/01/28 01:13:00;;;;;;;6.05;2.67;;;3.00;99.90;;;;;;5031443;28;20084;-62
2023/01/28 01:15:26;;;;;;;5.65;3.22;;;3.00;99.90;;;;;;5031613;28;20087;-62
2023/01/28 01:17:52;;;;;;;5.15;3.00;;;3.00;99.90;;;;;;5031168;28;20037;-62
2023/01/28 01:20:21;;;;;;;5.57;2.97;;;3.00;99.90;;;;;;5031337;28;20112;-62
2023/01/28 01:22:47;;;;;;;5.82;3.17;;;3.00;99.90;;;;;;5031289;28;20053;-63
2023/01/28 01:25:14;;;;;;;5.63;2.78;;;3.00;99.90;;;;;;5031422;28;20072;-62
2023/01/28 01:27:41;;;;;;;5.88;3.60;;;3.00;99.90;;;;;;5014265;28;20084;-62
2023/01/28 01:30:08;;;;;;;7.35;4.25;;;3.00;99.90;;;;;;5013652;28;20048;-62
2023/01/28 01:32:34;;;;;;;5.00;2.60;;;3.00;99.90;;;;;;5014104;28;20052;-62
2023/01/28 01:35:01;;;;;;;4.90;2.80;;;3.00;99.90;;;;;;5031141;28;20090;-62
2023/01/28 01:37:27;;;;;;;5.90;3.20;;;3.00;99.90;;;;;;5031002;28;21173;-63
2023/01/28 01:39:53;;;;;;;6.38;3.80;;;3.00;99.90;;;;;;5014597;28;20124;-62
2023/01/28 01:42:19;;;;;;;6.18;3.88;;;3.00;99.90;;;;;;5031271;28;20123;-63
2023/01/28 01:44:57;;;;;;;7.55;4.57;;;3.00;99.90;;;;;;5030829;28;20428;-62
2023/01/28 01:47:44;;;;;;;6.30;4.15;;;3.00;99.90;;;;;;5032570;28;20116;-62
2023/01/28 01:50:31;;;;;;;9.32;5.40;;;3.00;99.90;;;;;;5030261;28;20084;-63
2023/01/28 01:53:01;;;;;;;11.48;6.85;;;3.00;99.90;;;;;;5032075;28;20474;-62
2023/01/28 01:55:32;;;;;;;12.10;5.90;;;2.90;99.90;;;;;;5030751;28;20042;-62
2023/01/28 01:58:02;;;;;;;11.05;6.75;;;2.90;99.90;;;;;;5048409;28;20041;-62
2023/01/28 02:00:28;;;;;;;7.00;4.40;;;2.90;99.90;;;;;;5050217;28;20489;-63
2023/01/28 02:02:55;;;;;;;5.65;2.58;;;2.90;99.90;;;;;;5053914;28;20044;-62
2023/01/28 02:05:22;;;;;;;5.13;2.63;;;2.90;99.90;;;;;;5054136;28;20102;-62
2023/01/28 02:07:50;;;;;;;5.47;2.90;;;2.90;99.90;;;;;;5054579;28;20438;-62
2023/01/28 02:10:17;;;;;;;5.97;2.80;;;2.90;99.90;;;;;;5054891;28;20048;-62
2023/01/28 02:12:48;;;;;;;6.28;3.72;;;3.00;99.90;;;;;;5053034;28;20075;-62
2023/01/28 02:15:18;;;;;;;6.47;3.15;;;3.00;99.90;;;;;;5054781;28;20124;-62
2023/01/28 02:17:45;;;;;;;6.25;3.35;;;3.00;99.90;;;;;;5053834;28;20041;-62
2023/01/28 02:20:27;;;;;;;5.00;2.80;;;3.00;99.90;;;;;;5055712;28;20037;-62
2023/01/28 02:23:04;;;;;;;5.60;3.42;;;3.00;99.90;;;;;;5054927;28;20120;-62
2023/01/28 02:25:41;;;;;;;6.97;3.33;;;3.00;99.90;;;;;;5038046;28;20068;-62
2023/01/28 02:28:32;;;;;;;6.22;3.55;;;3.00;99.90;;;;;;5034643;28;20049;-63
2023/01/28 02:31:07;;;;;;;6.10;3.33;;;3.00;99.90;;;;;;5034867;28;20045;-62
2023/01/28 02:33:45;;;;;;;5.57;3.08;;;2.90;99.90;;;;;;5016730;28;20041;-62
2023/01/28 02:36:43;;;;;;;6.38;3.25;;;2.90;99.90;;;;;;5017982;28;20034;-62
2023/01/28 02:39:21;;;;;;;6.75;2.95;;;2.90;99.90;;;;;;5033474;28;20057;-62
2023/01/28 02:41:59;;;;;;;5.60;3.42;;;2.90;99.90;;;;;;5028652;28;20131;-63
2023/01/28 02:44:25;;;;;;;5.88;3.50;;;2.90;99.90;;;;;;5055177;28;20393;-63
2023/01/28 02:49:42;;;;;;;6.38;3.40;;;2.90;99.90;;;;;;5055112;28;20401;-62
2023/01/28 02:55:31;;;;;;;5.45;2.95;;;2.90;99.90;;;;;;5052817;28;20375;-62
2023/01/28 02:57:57;;;;;;;5.25;3.15;;;2.90;99.90;;;;;;5053922;28;20131;-63
2023/01/28 03:00:32;;;;;;;6.28;3.03;;;2.90;99.90;;;;;;5053225;28;20510;-62
2023/01/28 03:03:04;;;;;;;;;;;2.90;99.90;;;;;;5055739;28;20083;-62
2023/01/28 03:05:39;;;;;;;5.72;3.38;;;2.80;99.90;;;;;;5054560;28;19917;-62
2023/01/28 03:39:09;;;;;;;7.40;3.13;;;2.80;99.90;;;;;;5052843;28;19928;-63
2023/01/28 03:41:34;;;;;;;7.15;3.35;;;2.80;99.90;;;;;;5035824;28;20045;-62
2023/01/28 03:46:44;;;;;;;7.15;2.80;;;2.80;99.90;;;;;;5053854;28;20143;-62
2023/01/28 03:49:10;;;;;;;4.75;2.72;;;2.90;99.90;;;;;;5052845;28;20118;-62
2023/01/28 03:51:35;;;;;;;5.65;3.00;;;2.90;99.90;;;;;;5051976;28;20091;-62
2023/01/28 03:54:01;;;;;;;6.28;3.25;;;2.80;99.90;;;;;;5053136;28;20114;-62
2023/01/28 03:56:31;;;;;;;5.95;3.08;;;2.80;99.90;;;;;;5034937;28;20500;-62
2023/01/28 03:58:56;;;;;;;5.88;3.00;;;2.80;99.90;;;;;;5044061;28;20043;-62
2023/01/28 04:01:23;;;;;;;7.28;3.20;;;2.80;99.90;;;;;;5016242;28;20124;-62
2023/01/28 04:03:48;;;;;;;5.80;3.33;;;2.80;99.90;;;;;;5032797;28;20077;-62
2023/01/28 04:06:14;;;;;;;6.65;2.90;;;2.80;99.90;;;;;;5016200;28;20517;-62
2023/01/28 04:08:44;;;;;;;5.22;3.08;;;2.80;99.90;;;;;;5033477;28;20517;-63
2023/01/28 04:11:18;;;;;;;6.13;3.33;;;2.80;99.90;;;;;;5031855;28;20049;-62
2023/01/28 04:13:47;;;;;;;5.28;3.10;;;2.70;99.90;;;;;;5040542;28;20397;-63
2023/01/28 04:16:16;;;;;;;6.45;3.45;;;2.70;99.90;;;;;;5052450;28;20120;-62
2023/01/28 04:18:43;;;;;;;7.85;3.47;;;2.70;99.90;;;;;;5034594;28;20041;-62
2023/01/28 04:21:08;;;;;;;6.13;3.67;;;2.70;99.90;;;;;;5053540;28;20500;-62
2023/01/28 04:23:34;;;;;;;5.57;2.75;;;2.80;99.90;;;;;;5035343;28;20128;-62
2023/01/28 04:26:00;;;;;;;6.22;3.10;;;2.80;99.90;;;;;;5033258;28;20045;-62
2023/01/28 04:28:26;;;;;;;5.13;2.72;;;2.70;99.90;;;;;;5053303;28;20036;-62
2023/01/28 04:30:52;;;;;;;5.53;3.38;;;2.70;99.90;;;;;;5051885;28;20040;-62
2023/01/28 04:33:18;;;;;;;6.63;3.50;;;2.70;99.90;;;;;;5051146;28;20040;-63
2023/01/28 04:35:44;;;;;;;6.75;3.25;;;2.70;99.90;;;;;;5051512;28;20041;-62
2023/01/28 04:38:09;;;;;;;6.13;3.22;;;2.70;99.90;;;;;;5034852;28;20388;-62
2023/01/28 04:40:35;;;;;;;7.10;3.40;;;2.70;99.90;;;;;;5050720;28;20040;-62
2023/01/28 04:43:01;;;;;;;6.20;4.03;;;2.70;99.90;;;;;;5052033;28;20037;-62
2023/01/28 04:45:27;;;;;;;5.45;2.90;;;2.70;99.90;;;;;;5051174;28;20036;-63
2023/01/28 04:47:52;;;;;;;6.40;3.42;;;2.70;99.90;;;;;;5051460;28;20508;-62
2023/01/28 04:50:18;;;;;;;11.43;4.00;;;2.70;99.90;;;;;;5051689;28;20048;-62
2023/01/28 04:52:43;;;;;;;6.50;3.88;;;2.70;99.90;;;;;;5050298;28;20041;-62
2023/01/28 04:55:10;;;;;;;8.60;4.32;;;2.70;99.90;;;;;;5037741;28;20033;-62
2023/01/28 04:57:35;;;;;;;6.72;3.60;;;2.70;99.90;;;;;;5032508;28;20086;-62
2023/01/28 05:00:02;;;;;;;6.47;3.20;;;2.70;99.90;;;;;;5030959;28;20037;-62
2023/01/28 05:02:27;;;;;;;5.93;3.42;;;2.70;99.90;;;;;;5035768;28;20040;-62
2023/01/28 05:04:53;;;;;;;6.78;3.80;;;2.70;99.90;;;;;;5045196;28;20128;-62
2023/01/28 05:07:18;;;;;;;5.82;3.80;;;2.70;99.90;;;;;;5030795;28;20122;-62
2023/01/28 05:09:44;;;;;;;6.20;3.50;;;2.60;99.90;;;;;;5014448;28;20120;-62
2023/01/28 05:12:10;;;;;;;5.75;3.05;;;2.70;99.90;;;;;;5014962;28;20041;-62
2023/01/28 05:14:35;;;;;;;7.00;3.55;;;2.60;99.90;;;;;;5031474;28;20179;-62
2023/01/28 05:17:01;;;;;;;6.47;3.75;;;2.60;99.90;;;;;;5032704;28;20069;-62
2023/01/28 05:19:27;;;;;;;7.68;3.22;;;2.60;99.90;;;;;;5031060;28;20038;-62
2023/01/28 05:21:52;;;;;;;6.95;3.67;;;2.60;99.90;;;;;;5030525;28;20033;-63
2023/01/28 05:24:18;;;;;;;5.80;3.30;;;2.60;99.90;;;;;;5031194;28;20033;-64
2023/01/28 05:26:44;;;;;;;6.55;3.70;;;2.50;99.90;;;;;;5030697;28;20457;-63
2023/01/28 05:29:10;;;;;;;7.05;3.85;;;2.60;99.90;;;;;;5030456;28;20052;-62
2023/01/28 05:31:35;;;;;;;7.03;4.22;;;2.50;99.90;;;;;;5030613;28;20037;-62
2023/01/28 05:34:01;;;;;;;6.45;3.85;;;2.50;99.90;;;;;;5032338;28;20132;-62
2023/01/28 05:36:27;;;;;;;7.18;3.63;;;2.50;99.90;;;;;;5030464;28;20037;-62
2023/01/28 05:38:52;;;;;;;5.70;3.22;;;2.50;99.90;;;;;;5032266;28;20050;-62
2023/01/28 05:41:18;;;;;;;6.25;3.22;;;2.50;99.90;;;;;;5032445;28;20042;-62
2023/01/28 05:43:44;;;;;;;7.38;4.18;;;2.50;99.90;;;;;;5029700;28;20044;-62
2023/01/28 05:46:09;;;;;;;5.78;3.28;;;2.50;99.90;;;;;;5031143;28;20041;-62
2023/01/28 05:48:35;;;;;;;6.72;3.35;;;2.60;99.90;;;;;;5031655;28;20065;-62
2023/01/28 05:51:01;;;;;;;6.15;3.15;;;2.60;99.90;;;;;;5031369;28;20525;-62
2023/01/28 05:53:26;;;;;;;6.25;3.63;;;2.50;99.90;;;;;;5031876;28;20080;-63
2023/01/28 05:55:52;;;;;;;6.88;3.83;;;2.50;99.90;;;;;;5048727;28;20402;-62
2023/01/28 05:58:19;;;;;;;5.57;3.45;;;2.50;99.90;;;;;;5051135;28;20049;-62
2023/01/28 06:00:45;;;;;;;6.38;3.55;;;2.50;99.90;;;;;;5050570;28;20124;-62
2023/01/28 06:03:10;;;;;;;7.18;3.53;;;2.50;99.90;;;;;;5051079;28;20123;-62
2023/01/28 06:05:36;;;;;;;6.80;3.58;;;2.50;99.90;;;;;;5050153;28;20041;-62
2023/01/28 06:08:02;;;;;;;6.82;3.63;;;2.50;99.90;;;;;;5034009;28;20049;-62
2023/01/28 06:10:28;;;;;;;6.00;3.15;;;2.40;99.90;;;;;;5050414;28;20099;-63
2023/01/28 06:12:54;;;;;;;7.43;3.70;;;2.50;99.90;;;;;;5050199;28;20045;-62
2023/01/28 06:15:20;;;;;;;6.25;3.88;;;2.50;99.90;;;;;;5050769;28;20045;-62
2023/01/28 06:17:46;;;;;;;6.80;3.60;;;2.40;99.90;;;;;;5049379;28;20159;-62
2023/01/28 06:20:11;;;;;;;7.13;3.80;;;2.40;99.90;;;;;;5050504;28;20043;-62
2023/01/28 06:22:37;;;;;;;6.68;3.38;;;2.40;99.90;;;;;;5051318;28;20045;-62
2023/01/28 06:25:03;;;;;;;6.78;3.72;;;2.40;99.90;;;;;;5051069;28;20036;-62
2023/01/28 06:27:29;;;;;;;7.03;3.85;;;2.40;99.90;;;;;;5049909;28;20150;-62
2023/01/28 06:29:55;;;;;;;8.02;4.05;;;2.40;99.90;;;;;;5051272;28;20067;-62
2023/01/28 06:32:20;;;;;;;7.80;4.32;;;2.40;99.90;;;;;;5033282;28;20056;-62
2023/01/28 06:34:46;;;;;;;7.13;4.10;;;2.40;99.90;;;;;;5049988;28;21157;-62
2023/01/28 06:37:13;;;;;;;7.75;4.28;;;2.30;99.90;;;;;;5050283;28;20515;-62
2023/01/28 06:39:39;;;;;;;8.95;5.63;;;2.30;99.90;;;;;;5049222;28;20074;-63
2023/01/28 06:42:04;;;;;;;9.95;5.63;;;2.30;99.90;;;;;;5050055;28;20037;-62
2023/01/28 06:44:30;;;;;;;9.40;5.07;;;2.30;99.90;;;;;;5049950;28;20049;-62
2023/01/28 06:46:55;;;;;;;7.20;4.35;;;2.20;99.90;;;;;;5050743;28;20182;-62
2023/01/28 06:49:21;;;;;;;6.88;4.22;;;2.20;99.90;;;;;;5036810;28;20071;-62
2023/01/28 06:51:48;;;;;;;7.30;4.53;;;2.20;99.90;;;;;;5053318;28;20051;-62
2023/01/28 06:54:14;;;;;;;8.30;5.13;;;2.10;99.90;;;;;;5036599;28;20041;-62
2023/01/28 06:56:39;;;;;;;7.78;4.90;;;2.10;99.90;;;;;;5053458;28;20033;-62
2023/01/28 06:59:05;;;;;;;8.05;4.63;;;2.10;99.90;;;;;;5053345;28;20125;-62
2023/01/28 07:01:31;;;;;;;8.10;5.10;;;2.00;99.90;;;;;;5053220;28;20414;-62
2023/01/28 07:03:56;;;;;;;8.80;4.82;;;1.90;99.90;;;;;;5037007;28;20457;-62
2023/01/28 07:06:22;;;;;;;7.97;5.00;;;1.90;99.90;;;;;;5016561;28;20391;-62
2023/01/28 07:08:48;;;;;;;8.05;4.95;;;1.80;99.90;;;;;;5033239;28;20045;-62
2023/01/28 07:11:14;;;;;;;8.35;5.03;;;1.80;99.90;;;;;;5033774;28;20132;-62
2023/01/28 07:13:40;;;;;;;8.32;5.00;;;1.70;99.90;;;;;;5015989;28;20040;-62
2023/01/28 07:16:06;;;;;;;8.55;5.00;;;1.70;99.90;;;;;;5017239;28;20041;-62
2023/01/28 07:18:32;;;;;;;8.38;5.38;;;1.60;99.90;;;;;;5032867;28;20494;-62
2023/01/28 07:20:58;;;;;;;8.85;5.68;;;1.50;99.90;;;;;;5034198;28;20041;-62
2023/01/28 07:23:23;;;;;;;10.07;5.95;;;1.50;99.90;;;;;;5033543;28;20041;-62
2023/01/28 07:25:50;;;;;;;8.70;5.15;;;1.50;99.90;;;;;;5033043;28;20041;-62
2023/01/28 07:28:20;;;;;;;9.40;5.75;;;1.40;99.90;;;;;;5032688;28;20512;-62
2023/01/28 07:30:55;;;;;;;9.18;5.18;;;1.40;99.90;;;;;;5032822;28;20049;-62
2023/01/28 07:33:21;;;;;;;;;;;1.30;99.90;;;;;;5033701;28;20589;-62
2023/01/28 07:35:47;;;;;;;9.98;5.72;;;1.30;99.90;;;;;;5032065;28;20007;-62
2023/01/28 07:38:13;;;;;;;10.18;5.60;;;1.20;99.90;;;;;;5047895;28;20099;-62
2023/01/28 07:40:39;;;;;;;11.90;6.60;;;1.20;99.90;;;;;;5053202;28;20041;-62
2023/01/28 07:43:06;;;;;;;11.27;6.50;;;1.20;99.90;;;;;;5052690;28;20045;-62
2023/01/28 07:45:32;;;;;;;10.88;7.00;;;1.30;99.90;;;;;;5053843;28;20041;-62
2023/01/28 07:48:00;;;;;;;11.82;6.78;;;1.20;99.90;;;;;;5054423;28;20480;-62
2023/01/28 07:50:28;;;;;;;10.80;6.20;;;1.20;99.90;;;;;;5053274;28;20116;-62
2023/01/28 07:52:54;;;;;;;11.60;6.78;;;1.20;99.90;;;;;;5036445;28;20394;-62
2023/01/28 07:55:20;;;;;;;13.32;7.25;;;1.30;99.90;;;;;;5051417;28;20115;-62
2023/01/28 07:57:50;;;;;;;9.80;6.35;;;1.20;99.90;;;;;;5015594;28;20534;-62
2023/01/28 08:00:16;;;;;;;9.85;7.00;;;1.30;99.90;;;;;;5033573;28;20033;-62
2023/01/28 08:02:46;;;;;;;10.57;7.03;;;1.30;99.90;;;;;;5034556;28;20456;-62
2023/01/28 08:05:22;;;;;;;10.52;7.10;;;1.40;99.90;;;;;;5043023;28;20383;-62
2023/01/28 08:07:47;;;;;;;;;;;1.40;99.90;;;;;;5032596;28;20132;-63
2023/01/28 08:10:15;;;;;;;11.30;6.82;;;1.40;99.90;;;;;;5045171;28;19963;-63
2023/01/28 08:12:50;;;;;;;11.85;7.65;;;1.40;99.90;;;;;;5031987;28;20099;-63
2023/01/28 08:15:17;;;;;;;12.32;7.97;;;1.40;99.90;;;;;;5033179;28;20478;-63
2023/01/28 08:17:42;;;;;;;11.32;7.65;;;1.40;99.90;;;;;;5014494;28;20091;-63
2023/01/28 08:20:09;;;;;;;11.45;7.97;;;1.40;99.90;;;;;;5041414;28;20041;-62
2023/01/28 08:22:34;;;;;;;10.48;7.00;;;1.50;99.90;;;;;;5046654;28;20052;-63
2023/01/28 08:25:00;;;;;;;11.63;7.45;;;1.50;99.90;;;;;;5049455;28;20048;-63
2023/01/28 08:27:26;;;;;;;12.45;7.35;;;1.50;99.90;;;;;;5051155;28;20045;-63
2023/01/28 08:29:51;;;;;;;14.65;9.15;;;1.50;99.90;;;;;;5051261;28;20037;-63
2023/01/28 08:32:17;;;;;;;13.13;9.13;;;1.60;99.90;;;;;;5048804;28;20056;-63
2023/01/28 08:34:42;;;;;;;13.40;9.07;;;1.60;99.90;;;;;;5041297;28;20041;-63
2023/01/28 08:37:08;;;;;;;13.88;10.32;;;1.60;99.90;;;;;;5013413;28;20033;-64
2023/01/28 08:39:34;;;;;;;12.13;8.20;;;1.60;99.90;;;;;;5028296;28;20545;-63
2023/01/28 08:41:59;;;;;;;10.65;6.90;;;1.60;99.90;;;;;;5029907;28;20049;-63
2023/01/28 08:44:25;;;;;;;11.65;7.40;;;1.60;99.90;;;;;;5048250;28;20401;-63
2023/01/28 08:46:51;;;;;;;12.82;7.32;;;1.60;99.90;;;;;;5045714;28;20068;-63
2023/01/28 08:49:16;;;;;;;12.32;7.95;;;1.70;99.90;;;;;;5035005;28;20072;-63
2023/01/28 08:51:42;;;;;;;11.65;7.57;;;1.70;99.90;;;;;;5041049;28;20044;-63
2023/01/28 08:54:07;;;;;;;12.20;7.65;;;1.70;99.90;;;;;;5032318;28;20040;-62
2023/01/28 08:56:33;;;;;;;12.82;7.10;;;1.70;99.90;;;;;;5020648;28;20047;-62
2023/01/28 08:58:59;;;;;;;11.55;7.50;;;1.80;99.90;;;;;;5028643;28;20738;-63
2023/01/28 09:01:26;;;;;;;11.25;6.80;;;1.90;99.90;;;;;;5026222;28;20034;-62
2023/01/28 09:03:51;;;;;;;12.82;7.63;;;1.80;99.90;;;;;;5042682;28;20045;-62
2023/01/28 09:06:17;;;;;;;12.02;7.35;;;1.90;99.90;;;;;;5049251;28;20049;-62
2023/01/28 09:08:43;;;;;;;11.73;7.15;;;1.90;99.90;;;;;;5030025;28;20045;-62
2023/01/28 09:11:08;;;;;;;11.98;8.00;;;1.90;99.90;;;;;;5048044;28;20158;-62
2023/01/28 09:13:34;;;;;;;12.73;7.07;;;1.90;99.90;;;;;;5040725;28;20128;-63
2023/01/28 09:16:00;;;;;;;11.55;7.53;;;1.90;99.90;;;;;;5028676;28;20067;-62
2023/01/28 09:18:25;;;;;;;11.38;7.60;;;2.00;99.90;;;;;;5043123;28;20092;-63
2023/01/28 09:20:51;;;;;;;10.98;7.03;;;2.00;99.90;;;;;;5047588;28;20033;-62
2023/01/28 09:23:17;;;;;;;10.43;6.72;;;2.10;99.90;;;;;;5049490;28;20049;-62
2023/01/28 09:25:42;;;;;;;11.52;7.50;;;2.10;99.90;;;;;;5047822;28;20087;-62
2023/01/28 09:28:08;;;;;;;13.18;7.97;;;2.20;99.90;;;;;;5035690;28;20044;-62
2023/01/28 09:30:34;;;;;;;11.30;7.18;;;2.30;99.90;;;;;;5045836;28;20450;-63
2023/01/28 09:33:00;;;;;;;11.25;6.85;;;2.30;99.90;;;;;;5020953;28;20037;-62
2023/01/28 09:35:25;;;;;;;11.73;8.00;;;2.40;99.90;;;;;;5027469;28;20067;-63
2023/01/28 09:37:55;;;;;;;10.68;7.20;;;2.40;99.90;;;;;;5011878;28;20671;-62
2023/01/28 09:40:31;;;;;;;13.77;7.25;;;2.50;99.90;;;;;;5030086;28;20063;-62
2023/01/28 09:43:03;;;;;;;9.68;6.32;;;2.50;99.90;;;;;;5042237;28;20053;-62
2023/01/28 09:45:45;;;;;;;11.20;6.85;;;2.60;99.90;;;;;;5047811;28;20048;-62
2023/01/28 09:48:23;;;;;;;11.90;7.43;;;2.60;99.90;;;;;;5036756;28;20041;-62
2023/01/28 09:50:52;;;;;;;14.18;9.20;;;2.60;99.90;;;;;;5029419;28;20494;-62
2023/01/28 09:53:31;;;;;;;18.30;11.35;;;2.60;99.90;;;;;;5042470;28;20125;-62
2023/01/28 09:56:02;;;;;;;14.77;9.10;;;2.60;99.90;;;;;;5048089;28;20490;-63
2023/01/28 09:58:28;;;;;;;13.20;8.40;;;2.70;99.90;;;;;;5043141;28;20127;-62
2023/01/28 10:01:22;;;;;;;14.45;8.65;;;2.80;99.90;;;;;;5020416;28;20554;-62
2023/01/28 10:03:56;;;;;;;9.88;6.00;;;2.90;99.90;;;;;;5033611;28;20045;-63
2023/01/28 10:06:41;;;;;;;11.13;7.18;;;3.10;99.90;;;;;;5043894;28;20104;-63
2023/01/28 10:09:13;;;;;;;9.45;6.07;;;3.20;99.90;;;;;;5030142;28;20060;-63
2023/01/28 10:11:46;;;;;;;10.00;6.43;;;3.40;99.90;;;;;;5031505;28;20069;-63
2023/01/28 10:14:35;;;;;;;11.02;5.95;;;3.50;99.90;;;;;;5037275;28;20184;-63
2023/01/28 10:17:11;;;;;;;11.18;6.00;;;3.70;99.90;;;;;;5033707;28;20048;-63
2023/01/28 10:19:44;;;;;;;8.75;5.70;;;3.80;99.90;;;;;;5051694;28;20041;-63
2023/01/28 10:22:20;;;;;;;12.20;6.90;;;3.90;99.90;;;;;;5026616;28;20038;-63
2023/01/28 10:24:51;;;;;;;10.63;7.03;;;3.90;99.90;;;;;;5045973;28;20052;-63
2023/01/28 10:27:20;;;;;;;9.02;5.25;;;4.00;99.90;;;;;;5054849;28;20417;-63
2023/01/28 10:29:48;;;;;;;8.98;5.97;;;4.00;99.90;;;;;;5035540;28;20041;-63
2023/01/28 10:32:30;;;;;;;9.02;5.57;;;4.00;99.90;;;;;;5034130;28;20044;-63
2023/01/28 10:35:02;;;;;;;9.90;5.57;;;4.10;99.90;;;;;;5035878;28;20042;-63
2023/01/28 10:37:33;;;;;;;9.30;5.70;;;4.10;99.90;;;;;;5016681;28;20065;-63
2023/01/28 10:40:00;;;;;;;10.32;6.07;;;4.10;99.90;;;;;;5039078;28;20387;-63
2023/01/28 10:42:30;;;;;;;9.55;6.38;;;4.10;99.90;;;;;;5053913;28;20057;-63
2023/01/28 10:45:12;;;;;;;8.93;5.78;;;4.10;99.90;;;;;;5053528;28;20044;-63
2023/01/28 10:47:43;;;;;;;9.73;6.32;;;4.20;99.90;;;;;;5026491;28;20068;-63
2023/01/28 10:50:35;;;;;;;8.15;5.38;;;4.20;99.90;;;;;;5018212;28;20076;-63
2023/01/28 10:53:05;;;;;;;9.45;5.88;;;4.30;99.90;;;;;;5031381;28;20541;-63
2023/01/28 10:55:53;;;;;;;9.40;5.93;;;4.20;99.90;;;;;;5033604;28;20047;-63
2023/01/28 10:58:22;;;;;;;10.93;5.80;;;4.30;99.90;;;;;;5033277;28;20041;-63
2023/01/28 11:00:53;;;;;;;8.65;5.30;;;4.30;99.90;;;;;;5018311;28;20076;-63
2023/01/28 11:03:19;;;;;;;9.68;5.85;;;4.30;99.90;;;;;;5034104;28;20064;-63
2023/01/28 11:05:55;;;;;;;13.63;9.68;;;4.20;99.90;;;;;;5020934;28;20053;-63
2023/01/28 11:08:22;;;;;;;13.07;8.02;;;4.30;99.90;;;;;;5052255;28;20045;-63
2023/01/28 11:10:49;;;;;;;16.80;10.07;;;4.30;99.90;;;;;;5044185;28;20045;-63
2023/01/28 11:13:26;;;;;;;13.95;10.55;;;4.20;99.90;;;;;;5033154;28;20053;-63
2023/01/28 11:16:05;;;;;;;13.05;8.98;;;4.30;99.90;;;;;;5033912;28;20044;-63
2023/01/28 11:18:51;;;;;;;13.35;8.15;;;4.30;99.90;;;;;;5033444;28;20418;-63
2023/01/28 11:21:28;;;;;;;11.07;7.55;;;4.30;99.90;;;;;;5033095;28;20037;-63
2023/01/28 11:24:01;;;;;;;8.63;5.35;;;4.40;99.90;;;;;;5035095;28;20042;-63
2023/01/28 11:26:32;;;;;;;9.43;5.22;;;4.40;99.90;;;;;;5039068;28;20051;-63
2023/01/28 11:28:58;;;;;;;9.90;6.05;;;4.50;99.90;;;;;;5053544;28;20075;-63
2023/01/28 11:31:25;;;;;;;11.05;6.28;;;4.50;99.90;;;;;;5053483;28;20401;-63
2023/01/28 11:33:57;;;;;;;8.93;5.00;;;4.60;99.90;;;;;;5052753;28;20395;-63
2023/01/28 11:36:25;;;;;;;8.90;5.70;;;4.60;99.90;;;;;;5053042;28;20424;-63
2023/01/28 11:38:57;;;;;;;11.73;6.32;;;4.60;99.90;;;;;;5036258;28;20531;-63
2023/01/28 11:41:34;;;;;;;12.15;5.35;;;4.70;99.90;;;;;;5052555;28;20045;-63
2023/01/28 11:44:22;;;;;;;8.50;5.32;;;4.70;99.90;;;;;;5054320;28;20509;-63
2023/01/28 11:47:06;;;;;;;8.73;5.43;;;4.80;99.90;;;;;;5052568;28;20132;-63
2023/01/28 11:49:32;;;;;;;9.65;6.05;;;4.80;99.90;;;;;;5051725;28;20071;-63
2023/01/28 11:52:09;;;;;;;12.45;6.55;;;4.90;99.90;;;;;;5036488;28;20158;-62
2023/01/28 11:54:40;;;;;;;11.75;5.50;;;4.90;99.90;;;;;;5051871;28;20055;-63
2023/01/28 11:57:22;;;;;;;8.98;5.32;;;4.90;99.90;;;;;;5036384;28;20048;-63
2023/01/28 11:59:58;;;;;;;11.10;5.35;;;4.90;99.90;;;;;;5052415;28;20040;-63
2023/01/28 12:02:45;;;;;;;10.65;5.70;;;4.90;99.90;;;;;;5051902;28;20045;-63
2023/01/28 12:05:54;;;;;;;7.88;4.70;;;4.90;99.90;;;;;;5052831;28;20513;-62
2023/01/28 12:08:37;;;;;;;11.75;5.00;;;4.80;99.90;;;;;;5052451;28;20044;-63
2023/01/28 12:12:10;;;;;;;9.25;5.35;;;4.70;99.90;;;;;;5050938;28;20429;-63
2023/01/28 12:14:19;;;;;;;10.70;5.22;;;4.70;99.90;;;;;;5052544;28;20049;-62
2023/01/28 12:16:50;;;;;;;;;;;4.70;99.90;;;;;;5039404;28;20046;-62
2023/01/28 12:19:40;;;;;;;8.35;4.60;;;4.80;99.90;;;;;;5039397;28;19923;-63
2023/01/28 12:22:29;;;;;;;7.63;4.20;;;4.90;99.90;;;;;;5024836;28;20064;-63
2023/01/28 12:25:07;;;;;;;11.20;5.10;;;5.00;99.90;;;;;;5022120;28;20044;-62
2023/01/28 12:27:51;;;;;;;8.98;4.80;;;5.10;99.90;;;;;;5034202;28;20033;-62
2023/01/28 12:30:41;;;;;;;8.68;4.93;;;5.10;99.90;;;;;;5050479;28;20037;-62
2023/01/28 12:33:16;;;;;;;8.93;5.05;;;5.20;99.90;;;;;;5032628;28;20041;-62
2023/01/28 12:36:07;;;;;;;13.10;5.32;;;5.20;99.90;;;;;;5033937;28;20049;-62
2023/01/28 12:39:03;;;;;;;10.27;4.88;;;5.30;99.90;;;;;;5030539;28;20128;-62
2023/01/28 12:41:42;;;;;;;12.80;6.10;;;5.30;99.90;;;;;;5015112;28;20037;-62
2023/01/28 12:44:19;;;;;;;8.95;5.15;;;5.30;99.90;;;;;;5045600;28;20048;-63
2023/01/28 12:47:04;;;;;;;7.65;3.88;;;5.40;99.90;;;;;;5030718;28;20410;-63
2023/01/28 12:49:57;;;;;;;8.38;4.88;;;5.50;99.90;;;;;;5029157;28;20037;-63
2023/01/28 12:52:34;;;;;;;9.70;4.72;;;5.50;99.90;;;;;;5036857;28;20432;-63
2023/01/28 12:55:20;;;;;;;9.05;4.95;;;5.50;99.90;;;;;;5050002;28;20382;-63
2023/01/28 12:57:47;;;;;;;12.32;7.97;;;5.50;99.90;;;;;;5064709;28;20043;-63
2023/01/28 13:00:35;;;;;;;9.38;5.15;;;5.50;99.90;;;;;;5039387;28;20052;-63
2023/01/28 13:03:25;;;;;;;14.05;5.32;;;5.60;99.90;;;;;;5030060;28;20394;-63
2023/01/28 13:05:58;;;;;;;11.38;6.18;;;5.60;99.90;;;;;;5017003;28;20047;-63
2023/01/28 13:08:28;;;;;;;8.63;5.60;;;5.70;99.90;;;;;;5029955;28;20045;-63
2023/01/28 13:10:57;;;;;;;11.30;6.55;;;5.70;99.90;;;;;;5012338;28;20049;-63
2023/01/28 13:13:29;;;;;;;11.15;5.95;;;5.80;99.90;;;;;;5028366;28;20057;-63
2023/01/28 13:15:55;;;;;;;9.52;5.30;;;5.80;99.90;;;;;;5029032;28;20038;-63
2023/01/28 13:18:32;;;;;;;11.00;6.10;;;5.80;99.90;;;;;;5042209;28;20041;-63
2023/01/28 13:21:00;;;;;;;14.45;5.35;;;5.90;99.90;;;;;;5031193;28;20053;-63
2023/01/28 13:23:40;;;;;;;10.80;4.50;;;6.00;99.90;;;;;;5046133;28;20033;-63
2023/01/28 13:26:18;;;;;;;9.27;4.28;;;5.90;99.90;;;;;;5027991;28;20045;-63
2023/01/28 13:28:48;;;;;;;8.98;3.85;;;6.00;99.90;;;;;;5029333;28;20046;-63
2023/01/28 13:31:18;;;;;;;9.43;4.70;;;6.00;99.90;;;;;;5043629;28;20045;-63
2023/01/28 13:33:53;;;;;;;9.57;4.85;;;5.90;99.90;;;;;;5040856;28;20048;-63
2023/01/28 13:36:24;;;;;;;7.15;4.18;;;5.90;99.90;;;;;;5044739;28;20458;-63
2023/01/28 13:39:02;;;;;;;8.02;3.85;;;5.80;99.90;;;;;;5027676;28;20057;-63
2023/01/28 13:41:42;;;;;;;7.43;4.00;;;5.80;99.90;;;;;;5026968;28;20049;-63
2023/01/28 13:44:18;;;;;;;8.68;4.13;;;5.80;99.90;;;;;;5011818;28;20056;-63
2023/01/28 13:46:44;;;;;;;11.23;4.82;;;5.70;99.90;;;;;;5032191;28;20053;-63
2023/01/28 13:49:15;;;;;;;9.38;3.08;;;5.70;99.90;;;;;;5047240;28;20043;-63
2023/01/28 13:51:58;;;;;;;7.18;3.40;;;5.70;99.90;;;;;;5029180;28;20466;-63